Time;durP1;ratioP1;P1;durP2;ratioP2;P2;SDS_P1;SDS_P2;PMS_P1;PMS_P2;Temp;Humidity;BMP_temperature;BMP_pressure;BME280_temperature;BME280_humidity;BME280_pressure;Samples;Min_cycle;Max_cycle;Signal;HPM_P1;HPM_P2
2022/05/18 00:01:06;;;;;;;0.50;0.33;;;19.30;99.90;;;;;;5079739;28;20458;-83
2022/05/18 00:03:37;;;;;;;0.50;0.40;;;19.30;99.90;;;;;;5078575;28;20474;-80
2022/05/18 00:06:06;;;;;;;1.47;1.03;;;19.30;99.90;;;;;;5078778;28;20435;-82
2022/05/18 00:08:35;;;;;;;0.50;0.30;;;19.30;99.90;;;;;;5078495;28;20436;-82
2022/05/18 00:11:04;;;;;;;0.50;0.40;;;19.30;99.90;;;;;;5078718;28;20528;-81
2022/05/18 00:13:31;;;;;;;0.50;0.40;;;19.40;99.90;;;;;;5078276;28;20437;-81
2022/05/18 00:15:58;;;;;;;0.77;0.77;;;19.40;99.90;;;;;;5077867;28;20941;-81
2022/05/18 00:18:25;;;;;;;0.50;0.30;;;19.40;99.90;;;;;;5077858;28;20444;-81
2022/05/18 00:20:51;;;;;;;0.50;0.30;;;19.40;99.90;;;;;;5078902;28;20471;-82
2022/05/18 00:23:19;;;;;;;0.50;0.40;;;19.40;99.90;;;;;;5078490;28;20487;-80
2022/05/18 00:25:46;;;;;;;0.50;0.40;;;19.40;99.90;;;;;;5078890;28;20440;-81
2022/05/18 00:28:13;;;;;;;0.50;0.30;;;19.30;99.90;;;;;;5078669;28;20450;-81
2022/05/18 00:30:40;;;;;;;0.50;0.40;;;19.40;99.90;;;;;;5078108;28;20467;-82
2022/05/18 00:33:08;;;;;;;0.50;0.37;;;19.40;99.90;;;;;;5077650;28;20434;-82
2022/05/18 00:35:37;;;;;;;0.50;0.30;;;19.40;99.90;;;;;;5077471;28;20440;-82
2022/05/18 00:38:05;;;;;;;0.50;0.40;;;19.40;99.90;;;;;;5077948;28;20436;-82
2022/05/18 00:40:33;;;;;;;0.50;0.50;;;19.40;99.90;;;;;;5077625;28;20475;-80
2022/05/18 00:43:00;;;;;;;0.50;0.30;;;19.50;99.90;;;;;;5077898;28;20451;-82
2022/05/18 00:45:28;;;;;;;0.60;0.50;;;19.50;99.90;;;;;;5078178;28;20495;-81
2022/05/18 00:47:54;;;;;;;0.50;0.30;;;19.50;99.90;;;;;;5077282;28;20446;-80
2022/05/18 00:50:25;;;;;;;0.70;0.70;;;19.50;99.90;;;;;;5083274;28;20463;-80
2022/05/18 00:53:00;;;;;;;0.50;0.40;;;19.60;99.90;;;;;;5080993;28;20429;-82
2022/05/18 00:55:29;;;;;;;0.50;0.30;;;19.50;99.90;;;;;;5083164;28;20417;-81
2022/05/18 00:58:05;;;;;;;0.50;0.40;;;19.50;99.90;;;;;;5081527;28;20432;-82
2022/05/18 01:00:36;;;;;;;0.50;0.33;;;19.50;99.90;;;;;;5086736;28;20811;-80
2022/05/18 01:03:11;;;;;;;0.60;0.50;;;19.50;99.90;;;;;;5080922;28;20432;-81
2022/05/18 01:05:40;;;;;;;0.50;0.30;;;19.50;99.90;;;;;;5080711;28;20423;-80
2022/05/18 01:08:09;;;;;;;0.50;0.40;;;19.50;99.90;;;;;;5077986;28;20440;-81
2022/05/18 01:10:35;;;;;;;0.90;0.67;;;19.40;99.90;;;;;;5078226;28;20462;-81
2022/05/18 01:13:04;;;;;;;0.50;0.30;;;19.40;99.90;;;;;;5078299;28;20490;-81
2022/05/18 01:15:32;;;;;;;0.50;0.40;;;19.40;99.90;;;;;;5078142;28;20439;-81
2022/05/18 01:18:01;;;;;;;0.50;0.50;;;19.40;99.90;;;;;;5077792;28;20449;-80
2022/05/18 01:20:32;;;;;;;0.50;0.50;;;19.40;99.90;;;;;;5079000;28;20830;-79
2022/05/18 01:23:11;;;;;;;0.50;0.40;;;19.40;99.90;;;;;;5081352;28;20436;-80
2022/05/18 01:25:46;;;;;;;0.50;0.37;;;19.30;99.90;;;;;;5082635;28;20475;-80
2022/05/18 01:28:14;;;;;;;0.50;0.40;;;19.40;99.90;;;;;;5081181;28;20447;-79
2022/05/18 01:30:45;;;;;;;0.50;0.30;;;19.40;99.90;;;;;;5082180;28;20456;-79
2022/05/18 01:33:12;;;;;;;0.50;0.30;;;19.30;99.90;;;;;;5082710;28;20436;-79
2022/05/18 01:35:41;;;;;;;0.50;0.30;;;19.30;99.90;;;;;;5081889;28;20439;-81
2022/05/18 01:38:12;;;;;;;0.60;0.50;;;19.20;99.90;;;;;;5083163;28;20440;-80
2022/05/18 01:40:47;;;;;;;0.50;0.40;;;19.20;99.90;;;;;;5082610;28;20719;-79
2022/05/18 01:43:19;;;;;;;0.50;0.30;;;19.20;99.90;;;;;;5083254;28;20436;-81
2022/05/18 01:45:51;;;;;;;0.50;0.40;;;19.20;99.90;;;;;;5081584;28;20491;-79
2022/05/18 01:48:31;;;;;;;0.97;0.70;;;19.20;99.90;;;;;;5081426;28;20421;-80
2022/05/18 01:50:59;;;;;;;0.60;0.40;;;19.20;99.90;;;;;;5084205;28;20482;-80
2022/05/18 01:53:27;;;;;;;0.50;0.30;;;19.20;99.90;;;;;;5078500;28;20444;-81
2022/05/18 01:55:54;;;;;;;0.50;0.40;;;19.20;99.90;;;;;;5077782;28;20447;-81
2022/05/18 01:58:23;;;;;;;1.07;1.07;;;19.20;99.90;;;;;;5077541;28;20437;-80
2022/05/18 02:00:50;;;;;;;0.50;0.30;;;19.20;99.90;;;;;;5078465;28;20467;-81
2022/05/18 02:03:19;;;;;;;0.50;0.40;;;19.20;99.90;;;;;;5077804;28;20463;-81
2022/05/18 02:05:46;;;;;;;2.20;1.73;;;19.30;99.90;;;;;;5077701;28;20479;-81
2022/05/18 02:08:14;;;;;;;0.50;0.40;;;19.20;99.90;;;;;;5077383;28;20436;-81
2022/05/18 02:10:41;;;;;;;0.50;0.40;;;19.20;99.90;;;;;;5077568;28;20464;-80
2022/05/18 02:13:08;;;;;;;0.50;0.40;;;19.20;99.90;;;;;;5077435;28;20443;-80
2022/05/18 02:15:36;;;;;;;0.50;0.40;;;19.10;99.90;;;;;;5078057;28;20439;-80
2022/05/18 02:18:03;;;;;;;0.50;0.40;;;19.10;99.90;;;;;;5076714;28;20444;-80
2022/05/18 02:20:30;;;;;;;1.10;1.00;;;19.10;99.90;;;;;;5077126;28;20460;-78
2022/05/18 02:22:57;;;;;;;0.73;0.73;;;19.00;99.90;;;;;;5076954;28;20447;-80
2022/05/18 02:25:25;;;;;;;0.50;0.30;;;19.00;99.90;;;;;;5076906;28;20480;-82
2022/05/18 02:27:52;;;;;;;0.60;0.57;;;19.00;99.90;;;;;;5076511;28;20458;-81
2022/05/18 02:30:19;;;;;;;0.60;0.50;;;19.00;99.90;;;;;;5076490;28;20456;-81
2022/05/18 02:32:48;;;;;;;0.50;0.50;;;19.00;99.90;;;;;;5077504;28;20437;-81
2022/05/18 02:35:15;;;;;;;0.50;0.40;;;19.00;99.90;;;;;;5076911;28;20949;-81
2022/05/18 02:37:42;;;;;;;0.50;0.30;;;19.00;99.90;;;;;;5082773;28;20834;-79
2022/05/18 02:40:11;;;;;;;1.63;1.53;;;19.00;99.90;;;;;;5083678;28;20483;-79
2022/05/18 02:42:38;;;;;;;0.60;0.60;;;19.00;99.90;;;;;;5083295;28;20444;-80
2022/05/18 02:45:06;;;;;;;1.23;1.17;;;19.00;99.90;;;;;;5080750;28;20845;-79
2022/05/18 02:47:33;;;;;;;0.70;0.50;;;18.90;99.90;;;;;;5080571;28;20440;-80
2022/05/18 02:50:01;;;;;;;0.70;0.70;;;18.90;99.90;;;;;;5079688;28;20461;-79
2022/05/18 02:52:28;;;;;;;0.50;0.40;;;18.90;99.90;;;;;;5080775;28;20436;-80
2022/05/18 02:57:39;;;;;;;0.50;0.30;;;18.90;99.90;;;;;;5076861;28;20423;-80
2022/05/18 03:00:08;;;;;;;0.50;0.40;;;18.90;99.90;;;;;;5076325;28;20495;-81
2022/05/18 03:02:35;;;;;;;0.50;0.40;;;18.80;99.90;;;;;;5077496;28;20542;-80
2022/05/18 03:05:04;;;;;;;0.50;0.30;;;18.80;99.90;;;;;;5076815;28;20476;-80
2022/05/18 03:07:30;;;;;;;0.50;0.40;;;18.80;99.90;;;;;;5076535;28;20436;-81
2022/05/18 03:09:57;;;;;;;0.50;0.30;;;18.80;99.90;;;;;;5076359;28;20456;-80
2022/05/18 03:12:24;;;;;;;0.50;0.40;;;18.70;99.90;;;;;;5076626;28;20511;-80
2022/05/18 03:14:50;;;;;;;0.50;0.40;;;18.80;99.90;;;;;;5076127;28;20444;-80
2022/05/18 03:17:17;;;;;;;0.50;0.40;;;18.80;99.90;;;;;;5076581;28;20452;-80
2022/05/18 03:19:44;;;;;;;0.50;0.30;;;18.80;99.90;;;;;;5076102;28;20448;-80
2022/05/18 03:24:56;;;;;;;0.50;0.30;;;18.70;99.90;;;;;;5076525;28;20981;-80
2022/05/18 03:27:23;;;;;;;0.50;0.40;;;18.80;99.90;;;;;;5076129;28;20443;-78
2022/05/18 03:29:49;;;;;;;0.50;0.30;;;18.70;99.90;;;;;;5075239;28;20949;-81
2022/05/18 03:32:16;;;;;;;0.50;0.30;;;18.80;99.90;;;;;;5075127;28;20440;-78
2022/05/18 03:34:43;;;;;;;0.50;0.30;;;18.70;99.90;;;;;;5075893;28;20439;-79
2022/05/18 03:37:09;;;;;;;0.60;0.50;;;18.70;99.90;;;;;;5075793;28;20436;-81
2022/05/18 03:39:37;;;;;;;0.50;0.30;;;18.70;99.90;;;;;;5073838;28;20446;-81
2022/05/18 03:42:06;;;;;;;1.00;0.97;;;18.70;99.90;;;;;;5074976;28;20806;-80
2022/05/18 03:44:33;;;;;;;0.50;0.40;;;18.70;99.90;;;;;;5074834;28;20570;-80
2022/05/18 03:47:00;;;;;;;0.50;0.37;;;18.70;99.90;;;;;;5074705;28;20844;-81
2022/05/18 03:49:27;;;;;;;0.50;0.30;;;18.60;99.90;;;;;;5074302;28;20482;-80
2022/05/18 03:51:53;;;;;;;0.50;0.30;;;18.60;99.90;;;;;;5077781;28;20463;-81
2022/05/18 03:54:20;;;;;;;0.50;0.30;;;18.70;99.90;;;;;;5078137;28;20447;-81
2022/05/18 03:56:48;;;;;;;0.50;0.40;;;18.70;99.90;;;;;;5077605;28;20436;-80
2022/05/18 03:59:15;;;;;;;0.50;0.40;;;18.70;99.90;;;;;;5078023;28;20440;-80
2022/05/18 04:01:42;;;;;;;0.50;0.30;;;18.70;99.90;;;;;;5077217;28;20460;-80
2022/05/18 04:04:09;;;;;;;0.50;0.40;;;18.70;99.90;;;;;;5077001;28;20447;-79
2022/05/18 04:06:36;;;;;;;0.50;0.30;;;18.70;99.90;;;;;;5076413;28;20817;-80
2022/05/18 04:09:03;;;;;;;0.50;0.33;;;18.70;99.90;;;;;;5076824;28;20475;-79
2022/05/18 04:11:29;;;;;;;0.50;0.40;;;18.70;99.90;;;;;;5077765;28;20464;-79
2022/05/18 04:13:57;;;;;;;0.50;0.30;;;18.80;99.90;;;;;;5076751;28;20455;-80
2022/05/18 04:16:24;;;;;;;0.60;0.43;;;18.80;99.90;;;;;;5077160;28;20448;-81
2022/05/18 04:18:51;;;;;;;0.50;0.40;;;18.80;99.90;;;;;;5076565;28;20439;-80
2022/05/18 04:21:17;;;;;;;0.60;0.57;;;18.90;99.90;;;;;;5077202;28;20460;-80
2022/05/18 04:23:44;;;;;;;9.93;2.40;;;18.90;99.90;;;;;;5076268;28;20805;-80
2022/05/18 04:26:11;;;;;;;0.50;0.40;;;19.00;99.90;;;;;;5076867;28;20480;-79
2022/05/18 04:28:38;;;;;;;0.50;0.30;;;19.00;99.90;;;;;;5076415;28;20937;-80
2022/05/18 04:31:06;;;;;;;0.50;0.40;;;19.00;99.90;;;;;;5076786;28;20471;-79
2022/05/18 04:33:33;;;;;;;0.50;0.50;;;19.10;99.90;;;;;;5076800;28;20439;-79
2022/05/18 04:36:02;;;;;;;0.50;0.40;;;19.10;99.90;;;;;;5076856;28;20464;-80
2022/05/18 04:38:29;;;;;;;0.50;0.30;;;19.10;99.90;;;;;;5077472;28;20479;-81
2022/05/18 04:40:57;;;;;;;0.50;0.30;;;19.10;99.90;;;;;;5077477;28;20526;-81
2022/05/18 04:43:24;;;;;;;0.50;0.40;;;19.20;99.90;;;;;;5077538;28;20443;-81
2022/05/18 04:45:51;;;;;;;0.50;0.30;;;19.20;99.90;;;;;;5077434;28;20468;-80
2022/05/18 04:48:21;;;;;;;0.50;0.30;;;19.20;99.90;;;;;;5076653;28;20440;-80
2022/05/18 04:50:48;;;;;;;0.50;0.30;;;19.20;99.90;;;;;;5077931;28;20456;-81
2022/05/18 04:53:16;;;;;;;0.50;0.30;;;19.20;99.90;;;;;;5078169;28;20471;-80
2022/05/18 04:55:43;;;;;;;0.50;0.30;;;19.30;99.90;;;;;;5076956;28;20436;-83
2022/05/18 04:58:10;;;;;;;0.50;0.40;;;19.30;99.90;;;;;;5077439;28;20467;-82
2022/05/18 05:00:37;;;;;;;0.50;0.30;;;19.40;99.90;;;;;;5077866;28;20463;-82
2022/05/18 05:03:05;;;;;;;0.50;0.30;;;19.50;99.90;;;;;;5077306;28;20452;-82
2022/05/18 05:05:33;;;;;;;0.50;0.30;;;19.50;99.90;;;;;;5077104;28;20480;-82
2022/05/18 05:08:00;;;;;;;0.50;0.30;;;19.50;99.90;;;;;;5077488;28;20455;-82
2022/05/18 05:10:27;;;;;;;0.50;0.30;;;19.50;99.90;;;;;;5077641;28;20460;-82
2022/05/18 05:12:54;;;;;;;0.50;0.30;;;19.50;99.90;;;;;;5077131;28;20818;-82
2022/05/18 05:15:21;;;;;;;0.50;0.30;;;19.70;99.90;;;;;;5077407;28;20439;-80
2022/05/18 05:17:47;;;;;;;0.50;0.30;;;19.70;99.90;;;;;;5077820;28;20511;-82
2022/05/18 05:20:14;;;;;;;0.50;0.30;;;19.80;99.90;;;;;;5077332;28;20460;-82
2022/05/18 05:22:42;;;;;;;0.50;0.30;;;19.90;99.90;;;;;;5076999;28;20455;-81
2022/05/18 05:25:10;;;;;;;0.50;0.30;;;20.00;99.90;;;;;;5075739;28;20475;-80
2022/05/18 05:27:37;;;;;;;0.50;0.30;;;20.00;99.90;;;;;;5075840;28;20432;-81
2022/05/18 05:30:05;;;;;;;0.50;0.30;;;20.10;99.90;;;;;;5077520;28;20456;-81
2022/05/18 05:32:32;;;;;;;0.50;0.40;;;20.20;99.90;;;;;;5077483;28;20443;-82
2022/05/18 05:34:59;;;;;;;0.50;0.30;;;20.20;99.90;;;;;;5077423;28;20443;-82
2022/05/18 05:37:26;;;;;;;0.50;0.30;;;20.30;99.90;;;;;;5076913;28;20436;-81
2022/05/18 05:39:55;;;;;;;0.50;0.30;;;20.40;99.90;;;;;;5071361;28;20464;-80
2022/05/18 05:42:22;;;;;;;0.50;0.30;;;20.50;99.90;;;;;;5077590;28;20820;-82
2022/05/18 05:44:48;;;;;;;0.50;0.30;;;20.60;99.90;;;;;;5065298;28;20536;-81
2022/05/18 05:47:15;;;;;;;0.50;0.30;;;20.70;99.90;;;;;;5074657;28;20440;-81
2022/05/18 05:49:42;;;;;;;0.50;0.33;;;20.90;99.90;;;;;;5077337;28;20436;-82
2022/05/18 05:52:10;;;;;;;0.50;0.30;;;21.00;99.90;;;;;;5077968;28;20868;-82
2022/05/18 05:54:37;;;;;;;0.50;0.30;;;21.10;99.90;;;;;;5076957;28;20448;-80
2022/05/18 05:57:06;;;;;;;0.60;0.50;;;21.30;99.90;;;;;;5076847;28;20444;-82
2022/05/18 05:59:34;;;;;;;0.50;0.30;;;21.40;99.90;;;;;;5076710;28;20444;-82
2022/05/18 06:02:01;;;;;;;0.50;0.30;;;21.60;99.90;;;;;;5075085;28;20440;-82
2022/05/18 06:04:30;;;;;;;0.70;0.63;;;22.00;99.90;;;;;;5076215;28;20438;-83
2022/05/18 06:06:57;;;;;;;0.50;0.30;;;22.90;99.90;;;;;;5077094;28;20525;-82
2022/05/18 06:09:24;;;;;;;0.60;0.40;;;24.00;99.90;;;;;;5076797;28;20611;-82
2022/05/18 06:11:51;;;;;;;0.50;0.30;;;25.20;99.90;;;;;;5076138;28;20996;-82
2022/05/18 06:14:19;;;;;;;0.50;0.40;;;26.40;99.90;;;;;;5076409;28;20444;-81
2022/05/18 06:16:47;;;;;;;0.50;0.30;;;27.30;97.00;;;;;;5077044;28;20443;-82
2022/05/18 06:19:14;;;;;;;0.50;0.30;;;27.80;95.80;;;;;;5075912;28;20436;-83
2022/05/18 06:21:41;;;;;;;0.50;0.40;;;27.50;91.70;;;;;;5075275;28;20464;-82
2022/05/18 06:24:08;;;;;;;0.50;0.30;;;26.60;92.60;;;;;;5076925;28;20476;-82
2022/05/18 06:26:36;;;;;;;0.50;0.30;;;25.80;99.90;;;;;;5076186;28;20467;-83
2022/05/18 06:29:03;;;;;;;146.20;13.53;;;26.40;98.60;;;;;;5076200;28;20441;-82
2022/05/18 06:31:31;;;;;;;0.50;0.30;;;26.90;97.30;;;;;;5075564;28;20470;-82
2022/05/18 06:33:58;;;;;;;0.50;0.30;;;26.90;94.60;;;;;;5074288;28;20440;-82
2022/05/18 06:36:25;;;;;;;0.50;0.30;;;26.30;96.10;;;;;;5066130;28;20467;-79
2022/05/18 06:38:52;;;;;;;0.60;0.50;;;25.60;99.90;;;;;;5073794;28;20440;-82
2022/05/18 06:41:24;;;;;;;0.50;0.30;;;25.10;99.90;;;;;;5073989;28;20481;-82
2022/05/18 06:43:53;;;;;;;0.50;0.40;;;24.60;99.90;;;;;;5074188;28;20416;-82
2022/05/18 06:46:20;;;;;;;0.70;0.40;;;24.50;99.90;;;;;;5076025;28;20483;-82
2022/05/18 06:48:49;;;;;;;0.50;0.30;;;25.30;99.90;;;;;;5076247;28;20444;-83
2022/05/18 06:51:19;;;;;;;0.50;0.40;;;27.10;99.90;;;;;;5076799;28;20460;-83
2022/05/18 06:53:46;;;;;;;0.50;0.30;;;28.70;93.10;;;;;;5076765;28;20452;-83
2022/05/18 06:56:13;;;;;;;1.43;1.33;;;29.80;87.10;;;;;;5076575;28;20436;-83
2022/05/18 06:58:40;;;;;;;0.50;0.40;;;30.70;78.70;;;;;;5077384;28;20945;-82
2022/05/18 07:01:07;;;;;;;0.50;0.30;;;31.60;74.00;;;;;;5076758;28;20551;-83
2022/05/18 07:03:34;;;;;;;0.50;0.30;;;32.70;70.10;;;;;;5078550;28;20471;-83
2022/05/18 07:06:02;;;;;;;0.53;0.53;;;33.50;65.90;;;;;;5077643;28;20472;-83
2022/05/18 07:08:29;;;;;;;0.50;0.40;;;33.50;63.70;;;;;;5076891;28;20472;-82
2022/05/18 07:10:56;;;;;;;0.50;0.30;;;33.90;61.70;;;;;;5076775;28;20456;-83
2022/05/18 07:13:22;;;;;;;0.60;0.57;;;34.20;60.50;;;;;;5077222;28;20787;-82
2022/05/18 07:15:49;;;;;;;0.50;0.40;;;34.70;59.10;;;;;;5077130;28;20432;-83
2022/05/18 07:18:17;;;;;;;0.50;0.30;;;33.30;60.50;;;;;;5078305;28;20447;-83
2022/05/18 07:20:43;;;;;;;0.50;0.30;;;32.90;60.50;;;;;;5078471;28;20460;-83
2022/05/18 07:23:13;;;;;;;0.50;0.30;;;33.80;60.60;;;;;;5079415;28;20448;-83
2022/05/18 07:25:39;;;;;;;0.50;0.40;;;34.50;58.80;;;;;;5081312;28;20514;-81
2022/05/18 07:28:07;;;;;;;0.93;0.93;;;34.90;57.20;;;;;;5082691;28;20448;-82
2022/05/18 07:30:33;;;;;;;0.50;0.30;;;34.90;57.10;;;;;;5082840;28;20455;-79
2022/05/18 07:33:00;;;;;;;0.50;0.30;;;35.40;56.80;;;;;;5082537;28;20447;-81
2022/05/18 07:35:28;;;;;;;0.50;0.40;;;34.50;57.10;;;;;;5081715;28;20506;-81
2022/05/18 07:37:55;;;;;;;0.50;0.30;;;34.50;57.50;;;;;;5082104;28;20436;-82
2022/05/18 07:40:23;;;;;;;5.90;0.80;;;35.10;57.00;;;;;;5082154;28;20468;-81
2022/05/18 07:42:54;;;;;;;0.50;0.30;;;34.20;57.40;;;;;;5082363;28;20555;-81
2022/05/18 07:45:21;;;;;;;0.90;0.47;;;34.80;57.20;;;;;;5083157;28;20416;-80
2022/05/18 07:47:48;;;;;;;0.50;0.30;;;34.50;55.50;;;;;;5080642;28;20439;-82
2022/05/18 07:50:16;;;;;;;0.50;0.30;;;34.70;56.90;;;;;;5081895;28;20463;-82
2022/05/18 07:52:43;;;;;;;0.50;0.30;;;35.10;55.50;;;;;;5082519;28;20466;-82
2022/05/18 07:55:10;;;;;;;0.50;0.40;;;35.00;55.50;;;;;;5081246;28;20450;-82
2022/05/18 07:57:38;;;;;;;0.50;0.30;;;34.20;55.80;;;;;;5080792;28;20432;-81
2022/05/18 08:00:08;;;;;;;0.50;0.30;;;34.20;57.70;;;;;;5080896;28;20456;-82
2022/05/18 08:02:36;;;;;;;0.50;0.33;;;34.80;57.50;;;;;;5079784;28;20925;-82
2022/05/18 08:05:03;;;;;;;0.60;0.50;;;35.70;54.70;;;;;;5079322;28;20538;-82
2022/05/18 08:07:30;;;;;;;0.50;0.40;;;36.70;53.80;;;;;;5078632;28;20482;-82
2022/05/18 08:15:29;;;;;;;0.50;0.30;;;36.20;53.30;;;;;;5080149;28;20446;-82
2022/05/18 08:17:56;;;;;;;0.50;0.30;;;36.30;53.30;;;;;;5080431;28;20471;-82
2022/05/18 08:20:24;;;;;;;0.63;0.40;;;37.10;53.00;;;;;;5080531;28;20466;-82
2022/05/18 08:22:51;;;;;;;0.50;0.30;;;37.30;52.50;;;;;;5079611;28;20558;-81
2022/05/18 08:25:19;;;;;;;0.50;0.30;;;36.70;52.20;;;;;;5079118;28;20436;-82
2022/05/18 08:27:49;;;;;;;0.43;0.30;;;36.70;53.10;;;;;;5079992;28;20476;-82
2022/05/18 08:30:18;;;;;;;0.50;0.40;;;36.60;53.60;;;;;;5080235;28;20490;-82
2022/05/18 08:32:45;;;;;;;0.43;0.30;;;36.40;52.80;;;;;;5078370;28;20440;-82
2022/05/18 08:35:14;;;;;;;0.50;0.30;;;37.30;52.70;;;;;;5079563;28;20444;-82
2022/05/18 08:37:43;;;;;;;0.40;0.30;;;37.80;51.40;;;;;;5078735;28;20937;-82
2022/05/18 08:40:18;;;;;;;25.00;1.07;;;38.40;51.90;;;;;;5080329;28;20483;-82
2022/05/18 08:42:45;;;;;;;0.50;0.50;;;38.40;49.80;;;;;;5081652;28;20443;-83
2022/05/18 08:45:13;;;;;;;2.20;0.60;;;38.00;50.30;;;;;;5081996;28;20433;-81
2022/05/18 08:47:42;;;;;;;0.40;0.30;;;38.20;50.40;;;;;;5084030;28;20483;-82
2022/05/18 08:50:12;;;;;;;0.50;0.30;;;37.80;52.00;;;;;;5083598;28;20452;-83
2022/05/18 08:52:58;;;;;;;0.40;0.30;;;38.90;52.30;;;;;;5081455;28;20475;-83
2022/05/18 08:55:42;;;;;;;0.70;0.70;;;39.10;48.90;;;;;;5080272;28;20440;-82
2022/05/18 08:58:11;;;;;;;0.70;0.50;;;39.10;49.40;;;;;;5081294;28;20447;-82
2022/05/18 09:00:44;;;;;;;0.40;0.30;;;37.70;49.20;;;;;;5080100;28;20471;-82
2022/05/18 09:03:16;;;;;;;0.40;0.30;;;38.00;51.50;;;;;;5079499;28;20451;-82
2022/05/18 09:05:49;;;;;;;1.90;1.80;;;38.30;49.60;;;;;;5080617;28;20477;-80
2022/05/18 09:08:20;;;;;;;0.40;0.30;;;38.40;49.40;;;;;;5079552;28;20821;-83
2022/05/18 09:10:56;;;;;;;0.50;0.47;;;39.00;50.80;;;;;;5078994;28;20479;-84
2022/05/18 09:13:23;;;;;;;0.40;0.30;;;40.10;49.20;;;;;;5080113;28;20416;-83
2022/05/18 09:15:59;;;;;;;0.50;0.50;;;39.70;47.50;;;;;;5081629;28;20536;-82
2022/05/18 09:18:34;;;;;;;0.40;0.30;;;39.10;47.30;;;;;;5079929;28;20428;-82
2022/05/18 09:21:08;;;;;;;0.40;0.30;;;39.40;48.00;;;;;;5080288;28;20517;-83
2022/05/18 09:24:05;;;;;;;0.40;0.30;;;40.40;49.10;;;;;;5080217;28;20436;-83
2022/05/18 09:26:56;;;;;;;0.40;0.30;;;40.80;46.90;;;;;;5063672;28;20472;-82
2022/05/18 09:29:31;;;;;;;2.07;1.90;;;40.70;46.00;;;;;;5079751;28;20451;-84
2022/05/18 09:32:14;;;;;;;0.40;0.30;;;40.10;47.50;;;;;;5080045;28;20435;-82
2022/05/18 09:34:55;;;;;;;0.40;0.30;;;41.20;46.70;;;;;;5081129;28;20478;-81
2022/05/18 09:37:29;;;;;;;0.40;0.30;;;41.40;44.90;;;;;;5085064;28;20432;-82
2022/05/18 09:40:02;;;;;;;0.90;0.60;;;40.90;46.00;;;;;;5082098;28;20475;-82
2022/05/18 09:42:33;;;;;;;13.43;12.53;;;40.60;45.50;;;;;;5082019;28;20497;-84
2022/05/18 09:45:06;;;;;;;0.40;0.40;;;40.50;45.60;;;;;;5081491;28;20443;-84
2022/05/18 09:47:38;;;;;;;1.90;1.80;;;40.70;46.60;;;;;;5079351;28;20955;-84
2022/05/18 09:50:08;;;;;;;0.40;0.30;;;41.10;46.50;;;;;;5079877;28;20953;-83
2022/05/18 09:52:38;;;;;;;0.40;0.30;;;41.60;45.20;;;;;;5079621;28;20441;-85
2022/05/18 09:55:09;;;;;;;0.40;0.30;;;41.60;45.20;;;;;;5080829;28;20436;-83
2022/05/18 09:57:40;;;;;;;0.90;0.90;;;41.00;45.20;;;;;;5079986;28;20789;-84
2022/05/18 10:00:12;;;;;;;0.40;0.30;;;40.90;46.40;;;;;;5080008;28;20452;-83
2022/05/18 10:08:15;;;;;;;0.40;0.30;;;41.80;44.40;;;;;;5077724;28;20824;-83
2022/05/18 10:10:44;;;;;;;0.40;0.30;;;40.80;45.80;;;;;;5077464;28;20976;-84
2022/05/18 10:13:13;;;;;;;0.40;0.30;;;40.10;45.20;;;;;;5077820;28;20535;-83
2022/05/18 10:15:42;;;;;;;0.90;0.70;;;40.40;46.50;;;;;;5078523;28;20443;-84
2022/05/18 10:18:18;;;;;;;0.40;0.30;;;41.10;45.90;;;;;;5078378;28;20439;-81
2022/05/18 10:21:13;;;;;;;0.40;0.30;;;41.10;45.50;;;;;;5077802;28;20467;-82
2022/05/18 10:23:53;;;;;;;0.40;0.30;;;39.60;45.20;;;;;;5077400;28;21089;-80
2022/05/18 10:26:24;;;;;;;0.40;0.30;;;38.50;46.90;;;;;;5077463;28;20441;-83
2022/05/18 10:28:57;;;;;;;0.40;0.30;;;39.50;47.90;;;;;;5076833;28;20833;-83
2022/05/18 10:31:28;;;;;;;0.40;0.30;;;39.70;46.90;;;;;;5076827;28;20459;-83
2022/05/18 10:34:14;;;;;;;0.40;0.30;;;40.10;48.40;;;;;;5076931;28;20454;-83
2022/05/18 10:36:46;;;;;;;0.50;0.50;;;40.90;45.20;;;;;;5077461;28;21008;-83
2022/05/18 10:39:12;;;;;;;0.50;0.40;;;40.90;44.40;;;;;;5076421;28;20436;-83
2022/05/18 10:41:42;;;;;;;0.40;0.30;;;41.10;44.00;;;;;;5077399;28;20464;-83
2022/05/18 10:44:16;;;;;;;0.40;0.30;;;40.60;45.40;;;;;;5076310;28;20443;-82
2022/05/18 10:46:45;;;;;;;1.13;0.73;;;41.40;44.90;;;;;;5076862;28;20468;-81
2022/05/18 10:49:27;;;;;;;0.97;0.97;;;41.90;42.80;;;;;;5076860;28;20466;-82
2022/05/18 10:51:54;;;;;;;0.40;0.30;;;40.80;42.90;;;;;;5076590;28;20529;-84
2022/05/18 10:54:25;;;;;;;0.40;0.30;;;40.10;43.70;;;;;;5076086;28;20448;-83
2022/05/18 10:56:53;;;;;;;0.70;0.50;;;39.70;43.50;;;;;;5076805;28;20447;-81
2022/05/18 10:59:32;;;;;;;0.40;0.30;;;39.40;43.50;;;;;;5077621;28;20443;-82
2022/05/18 11:02:07;;;;;;;0.40;0.30;;;39.80;44.20;;;;;;5080524;28;20443;-82
2022/05/18 11:04:51;;;;;;;0.40;0.30;;;40.40;43.20;;;;;;5080004;28;20423;-81
2022/05/18 11:07:20;;;;;;;0.40;0.30;;;40.00;44.00;;;;;;5079254;28;20499;-83
2022/05/18 11:09:47;;;;;;;1.23;0.80;;;39.30;44.00;;;;;;5079819;28;20451;-82
2022/05/18 11:12:27;;;;;;;0.40;0.30;;;38.80;43.80;;;;;;5079640;28;20817;-82
2022/05/18 11:14:59;;;;;;;0.50;0.50;;;38.90;45.50;;;;;;5079434;28;20879;-83
2022/05/18 11:17:36;;;;;;;0.40;0.40;;;38.20;45.00;;;;;;5078935;28;20451;-81
2022/05/18 11:20:16;;;;;;;1.27;0.73;;;38.60;46.40;;;;;;5078364;28;20953;-81
2022/05/18 11:22:52;;;;;;;0.50;0.37;;;39.20;44.90;;;;;;5078604;28;20439;-83
2022/05/18 11:25:27;;;;;;;0.40;0.30;;;38.90;44.40;;;;;;5078587;28;20423;-82
2022/05/18 11:28:01;;;;;;;0.40;0.30;;;38.70;44.90;;;;;;5077936;28;20471;-81
2022/05/18 11:30:38;;;;;;;0.40;0.30;;;39.20;46.60;;;;;;5079573;28;20464;-82
2022/05/18 11:33:17;;;;;;;0.40;0.30;;;40.00;45.30;;;;;;5079588;28;20828;-82
2022/05/18 11:35:54;;;;;;;0.40;0.30;;;40.20;43.80;;;;;;5079278;28;20435;-83
2022/05/18 11:38:50;;;;;;;0.40;0.30;;;39.70;44.30;;;;;;5078150;28;20440;-83
2022/05/18 11:41:31;;;;;;;0.40;0.30;;;39.00;43.60;;;;;;5071438;28;20514;-83
2022/05/18 11:44:05;;;;;;;0.50;0.40;;;38.80;43.40;;;;;;5078563;28;20436;-83
2022/05/18 11:46:52;;;;;;;0.40;0.30;;;37.90;44.90;;;;;;5078782;28;20450;-84
2022/05/18 11:49:22;;;;;;;0.40;0.30;;;37.20;44.90;;;;;;5078193;28;20440;-83
2022/05/18 11:52:08;;;;;;;0.70;0.60;;;36.70;46.00;;;;;;5078479;28;20460;-84
2022/05/18 11:54:47;;;;;;;0.43;0.40;;;37.00;45.70;;;;;;5078533;28;20940;-83
2022/05/18 11:57:23;;;;;;;0.50;0.40;;;36.80;46.10;;;;;;5078475;28;20892;-82
2022/05/18 12:00:07;;;;;;;0.50;0.30;;;37.50;46.50;;;;;;5079602;28;20439;-83
2022/05/18 12:02:57;;;;;;;0.40;0.30;;;38.70;45.90;;;;;;5078332;28;20526;-83
2022/05/18 12:05:48;;;;;;;0.40;0.30;;;40.00;45.00;;;;;;5078789;28;20432;-85
2022/05/18 12:08:45;;;;;;;0.40;0.30;;;40.20;43.90;;;;;;5078908;28;20845;-84
2022/05/18 12:11:21;;;;;;;0.40;0.30;;;41.00;42.40;;;;;;5077150;28;20523;-83
2022/05/18 12:13:59;;;;;;;0.40;0.30;;;40.60;41.60;;;;;;5078186;28;20517;-83
2022/05/18 12:16:33;;;;;;;0.40;0.30;;;40.20;42.00;;;;;;5078847;28;20807;-82
2022/05/18 12:19:07;;;;;;;0.40;0.30;;;39.20;43.80;;;;;;5078025;28;20554;-83
2022/05/18 12:21:39;;;;;;;0.50;0.40;;;38.90;42.30;;;;;;5078430;28;20468;-83
2022/05/18 12:24:10;;;;;;;0.40;0.30;;;38.50;42.50;;;;;;5078528;28;20447;-82
2022/05/18 12:26:41;;;;;;;0.43;0.30;;;38.80;43.30;;;;;;5079178;28;20420;-83
2022/05/18 12:29:10;;;;;;;0.40;0.30;;;38.10;43.90;;;;;;5078193;28;20417;-83
2022/05/18 12:31:38;;;;;;;0.40;0.30;;;38.30;43.90;;;;;;5077603;28;20471;-80
2022/05/18 12:34:16;;;;;;;0.40;0.30;;;39.30;44.90;;;;;;5078664;28;20439;-84
2022/05/18 12:36:47;;;;;;;0.40;0.30;;;40.00;42.30;;;;;;5078666;28;20440;-83
2022/05/18 12:39:19;;;;;;;0.40;0.30;;;40.10;40.30;;;;;;5076556;28;20436;-82
2022/05/18 12:41:49;;;;;;;0.40;0.30;;;39.90;41.80;;;;;;5077472;28;20475;-83
2022/05/18 12:44:24;;;;;;;0.40;0.30;;;39.90;41.90;;;;;;5078722;28;20443;-85
2022/05/18 12:46:54;;;;;;;0.40;0.30;;;39.30;42.00;;;;;;5077602;28;20436;-84
2022/05/18 12:49:30;;;;;;;0.40;0.30;;;39.30;43.90;;;;;;5077621;28;20949;-82
2022/05/18 12:52:02;;;;;;;0.53;0.50;;;40.20;43.70;;;;;;5078224;28;20479;-82
2022/05/18 12:54:41;;;;;;;0.40;0.30;;;40.60;41.60;;;;;;5077960;28;20496;-83
2022/05/18 12:57:22;;;;;;;0.40;0.30;;;40.60;42.90;;;;;;5078032;28;20437;-82
2022/05/18 13:00:34;;;;;;;0.40;0.30;;;41.10;42.60;;;;;;5077519;28;20436;-84
2022/05/18 13:03:20;;;;;;;0.40;0.30;;;40.60;41.10;;;;;;5077615;28;20439;-83
2022/05/18 13:05:52;;;;;;;0.40;0.30;;;40.40;41.20;;;;;;5077734;28;20412;-83
2022/05/18 13:08:51;;;;;;;0.40;0.30;;;40.10;40.80;;;;;;5077327;28;20457;-81
2022/05/18 13:11:32;;;;;;;0.83;0.77;;;40.50;43.20;;;;;;5055613;28;20478;-83
2022/05/18 13:14:24;;;;;;;0.40;0.30;;;40.60;42.40;;;;;;5078784;28;20416;-83
2022/05/18 13:17:21;;;;;;;0.40;0.30;;;40.40;41.00;;;;;;5076922;28;20445;-81
2022/05/18 13:19:59;;;;;;;1.50;0.80;;;39.30;40.30;;;;;;4990603;28;20499;-82